Sainte-Foy, Canada
Current Conditions -  °F | °C
As of 4:00 AM on Friday 19 Dec 2014 (Local Time) from CYQB Reporting Station
Few Clouds Few Clouds  
Wind Chill: 16°   Ceiling: Unl
Heat Index: 23°   Visibility: 15mi
Dew Point: 16°   Wind: 6mph
Humidity: 74%   Direction: 300°WNW
Pressure: 29.86"   Gusts: NA
Location:  46.78°N, 71.3°W
Report Text: CYQB 190900Z 30005KT 240V320 15SM FEW058 FEW075 M05/M09 A2986 RMK SC1AC1 SLP117
Loading
Personal Weather Stations






























Interactive Weather Map New forecast layout! Learn more

10-Day Weather Forecast

Advertisements
Track Severe Weather on mobile